Time;durP1;ratioP1;P1;durP2;ratioP2;P2;SDS_P1;SDS_P2;PMS_P1;PMS_P2;Temp;Humidity;BMP_temperature;BMP_pressure;BME280_temperature;BME280_humidity;BME280_pressure;Samples;Min_cycle;Max_cycle;Signal;HPM_P1;HPM_P2
2022/02/06 00:00:20;;;;;;;;;;;;;;;14.47;56.50;101529.06;4964838;28;20375;-77
2022/02/06 00:03:05;;;;;;;;;;;;;;;14.48;57.06;101527.09;4967603;28;19914;-77
2022/02/06 00:05:50;;;;;;;;;;;;;;;14.50;57.01;101520.19;4961400;28;19913;-77
2022/02/06 00:08:37;;;;;;;;;;;;;;;14.61;56.62;101522.59;4967817;28;20371;-77
2022/02/06 00:11:22;;;;;;;;;;;;;;;14.69;56.55;101525.34;4979513;28;19918;-77
2022/02/06 00:14:06;;;;;;;;;;;;;;;14.76;56.19;101528.41;4963966;28;19918;-77
2022/02/06 00:16:51;;;;;;;;;;;;;;;14.69;56.32;101536.28;4950578;28;20315;-77
2022/02/06 00:19:39;;;;;;;;;;;;;;;14.68;56.20;101534.66;4970459;28;19918;-77
2022/02/06 00:23:10;;;;;;;;;;;;;;;14.78;56.05;101533.56;4965896;28;19918;-77
2022/02/06 00:25:52;;;;;;;;;;;;;;;14.86;55.68;101522.59;4966529;28;19914;-77
2022/02/06 00:28:45;;;;;;;;;;;;;;;14.92;55.44;101531.44;4969407;28;19914;-77
2022/02/06 00:32:24;;;;;;;;;;;;;;;14.85;55.02;101520.97;4975279;28;19918;-77
2022/02/06 00:41:03;;;;;;;;;;;;;;;14.63;53.60;101520.38;4960987;28;19914;-77
2022/02/06 00:43:45;;;;;;;;;;;;;;;14.54;51.78;101518.41;4956167;28;19914;-77
2022/02/06 00:46:30;;;;;;;;;;;;;;;14.37;48.35;101521.16;4956733;28;19918;-77
2022/02/06 00:49:26;;;;;;;;;;;;;;;14.22;46.63;101520.78;4958836;28;19914;-76
2022/02/06 00:52:17;;;;;;;;;;;;;;;14.08;45.30;101526.38;4955413;28;19922;-77
2022/02/06 00:55:02;;;;;;;;;;;;;;;13.82;44.85;101522.75;4958481;28;19922;-77
2022/02/06 00:57:46;;;;;;;;;;;;;;;13.70;44.39;101518.72;4956986;28;19914;-77
2022/02/06 01:00:30;;;;;;;;;;;;;;;13.56;44.04;101520.75;4954013;28;19918;-77
2022/02/06 01:03:15;;;;;;;;;;;;;;;13.58;43.88;101526.72;4952096;28;20287;-77
2022/02/06 01:06:00;;;;;;;;;;;;;;;13.37;45.45;101522.09;4950862;28;20302;-77
2022/02/06 01:08:44;;;;;;;;;;;;;;;13.47;47.40;101528.09;4948771;28;19918;-76
2022/02/06 01:11:29;;;;;;;;;;;;;;;13.60;47.65;101526.41;4954683;28;20372;-77
2022/02/06 01:19:58;;;;;;;;;;;;;;;13.77;51.16;101531.91;4960062;28;19914;-77
2022/02/06 01:22:55;;;;;;;;;;;;;;;13.76;50.16;101524.06;4957316;28;20303;-77
2022/02/06 01:26:05;;;;;;;;;;;;;;;13.76;49.83;101516.66;4954818;28;20468;-77
2022/02/06 01:28:51;;;;;;;;;;;;;;;13.54;48.17;101519.47;4946599;28;19918;-77
2022/02/06 01:34:32;;;;;;;;;;;;;;;12.94;47.62;101519.13;4956617;28;19918;-77
2022/02/06 01:40:57;;;;;;;;;;;;;;;13.01;45.54;101508.53;4944864;28;20547;-77
2022/02/06 01:43:51;;;;;;;;;;;;;;;12.84;45.44;101503.78;4956256;28;19915;-77
2022/02/06 01:46:51;;;;;;;;;;;;;;;12.84;45.49;101496.41;4954335;28;20013;-77
2022/02/06 02:46:40;;;;;;;;;;;;;;;12.59;46.94;101469.75;4961118;28;20395;-77
2022/02/06 02:49:29;;;;;;;;;;;;;;;12.52;46.27;101463.91;4964543;28;20311;-76
2022/02/06 02:52:24;;;;;;;;;;;;;;;12.53;45.52;101459.25;4962416;28;19918;-76
2022/02/06 02:55:26;;;;;;;;;;;;;;;12.56;46.50;101470.34;4959831;28;19914;-77
2022/02/06 03:01:10;;;;;;;;;;;;;;;12.34;44.93;101456.72;4954934;28;19918;-77
2022/02/06 03:03:55;;;;;;;;;;;;;;;12.10;46.05;101462.44;4958535;28;19918;-76
2022/02/06 03:06:39;;;;;;;;;;;;;;;12.13;45.58;101450.94;4960810;28;19915;-77
2022/02/06 03:09:24;;;;;;;;;;;;;;;11.89;45.55;101450.34;4961349;28;19915;-77
2022/02/06 03:12:09;;;;;;;;;;;;;;;11.90;45.40;101450.06;4965058;28;19918;-76
2022/02/06 03:15:02;;;;;;;;;;;;;;;11.78;45.95;101444.34;4962471;28;19914;-76
2022/02/06 03:17:57;;;;;;;;;;;;;;;11.74;46.16;101456.94;4960871;28;20295;-77
2022/02/06 03:20:41;;;;;;;;;;;;;;;11.75;45.89;101450.38;4964421;28;19915;-76
2022/02/06 03:23:27;;;;;;;;;;;;;;;11.63;46.29;101444.59;4962147;28;19914;-76
2022/02/06 03:26:12;;;;;;;;;;;;;;;11.67;46.05;101444.81;4960498;28;19936;-76
2022/02/06 03:28:56;;;;;;;;;;;;;;;11.44;45.94;101443.91;4964473;28;20535;-77
2022/02/06 03:31:41;;;;;;;;;;;;;;;11.42;46.09;101446.97;4962592;28;19918;-77
2022/02/06 03:34:25;;;;;;;;;;;;;;;11.48;46.97;101450.38;4960303;28;19914;-76
2022/02/06 03:37:10;;;;;;;;;;;;;;;11.65;47.28;101447.84;4964013;28;19914;-76
2022/02/06 03:39:56;;;;;;;;;;;;;;;11.74;46.49;101446.03;4959978;28;19918;-76
2022/02/06 03:42:53;;;;;;;;;;;;;;;11.70;46.05;101436.84;4958211;28;19914;-77
2022/02/06 03:49:13;;;;;;;;;;;;;;;11.81;47.51;101437.47;4959250;28;19919;-77
2022/02/06 03:51:35;;;;;;;;;;;;;;;11.85;47.46;101433.00;4956326;28;19919;-77
2022/02/06 03:54:20;;;;;;;;;;;;;;;11.90;47.17;101430.97;4959661;28;19914;-77
2022/02/06 03:57:05;;;;;;;;;;;;;;;11.92;48.16;101431.50;4939556;29;19914;-76
2022/02/06 03:59:49;;;;;;;;;;;;;;;11.98;48.33;101429.47;4942856;29;19919;-77
2022/02/06 04:02:34;;;;;;;;;;;;;;;11.77;46.21;101425.56;4941124;29;20380;-77
2022/02/06 04:05:19;;;;;;;;;;;;;;;11.59;45.74;101422.63;4943273;29;19914;-76
2022/02/06 04:08:06;;;;;;;;;;;;;;;11.61;46.61;101416.88;4956954;28;19914;-77
2022/02/06 04:10:52;;;;;;;;;;;;;;;11.56;46.52;101422.44;4960321;28;19918;-77
2022/02/06 04:13:51;;;;;;;;;;;;;;;11.52;46.31;101421.44;4957962;28;19918;-77
2022/02/06 04:16:42;;;;;;;;;;;;;;;11.45;45.73;101424.56;4956795;28;19918;-77
2022/02/06 04:19:27;;;;;;;;;;;;;;;11.23;45.87;101420.91;4959250;28;19914;-76
2022/02/06 04:22:11;;;;;;;;;;;;;;;10.87;45.64;101434.41;4957698;28;19914;-76
2022/02/06 04:24:56;;;;;;;;;;;;;;;10.48;47.20;101427.44;4955569;28;19918;-76
2022/02/06 04:27:40;;;;;;;;;;;;;;;10.29;46.90;101430.19;4959496;28;19914;-77
2022/02/06 04:30:25;;;;;;;;;;;;;;;10.51;46.14;101421.41;4957816;28;19915;-76
2022/02/06 04:33:09;;;;;;;;;;;;;;;10.71;44.89;101420.25;4955922;28;19922;-77
2022/02/06 04:35:58;;;;;;;;;;;;;;;10.50;46.06;101413.56;4958140;28;19914;-76
2022/02/06 04:38:57;;;;;;;;;;;;;;;10.59;45.89;101412.56;4957466;28;19915;-77
2022/02/06 04:41:56;;;;;;;;;;;;;;;10.28;46.27;101417.69;4960835;28;19914;-76
2022/02/06 04:53:59;;;;;;;;;;;;;;;10.64;46.17;101415.19;4957072;28;19914;-77
2022/02/06 05:18:30;;;;;;;;;;;;;;;10.36;46.08;101393.66;4958544;28;19915;-77
2022/02/06 05:27:28;;;;;;;;;;;;;;;10.43;45.49;101391.38;4955150;28;19915;-76
2022/02/06 05:30:16;;;;;;;;;;;;;;;10.32;45.50;101395.34;4952971;28;19918;-77
2022/02/06 05:33:02;;;;;;;;;;;;;;;10.36;46.16;101396.38;4940204;29;19922;-77
2022/02/06 05:35:47;;;;;;;;;;;;;;;10.40;46.54;101394.69;4956680;28;19914;-76
2022/02/06 05:38:32;;;;;;;;;;;;;;;10.55;46.92;101397.16;4955515;28;20299;-76
2022/02/06 05:41:16;;;;;;;;;;;;;;;10.48;47.17;101391.28;4954470;28;20291;-77
2022/02/06 05:44:02;;;;;;;;;;;;;;;10.46;48.92;101385.34;4953148;29;19915;-77
2022/02/06 05:46:47;;;;;;;;;;;;;;;10.67;47.74;101389.31;4947820;29;20322;-76
2022/02/06 05:49:31;;;;;;;;;;;;;;;10.76;47.60;101390.25;4955660;28;19914;-76
2022/02/06 05:52:16;;;;;;;;;;;;;;;10.92;47.82;101391.56;4945527;29;19923;-76
2022/02/06 05:55:01;;;;;;;;;;;;;;;10.75;45.52;101387.81;4947772;28;20307;-77
2022/02/06 05:57:45;;;;;;;;;;;;;;;10.68;46.42;101386.28;4950754;28;19918;-77
2022/02/06 06:00:30;;;;;;;;;;;;;;;10.53;46.07;101392.00;4951366;28;20303;-76
2022/02/06 06:03:16;;;;;;;;;;;;;;;10.48;45.73;101394.00;4951766;28;20375;-76
2022/02/06 06:06:00;;;;;;;;;;;;;;;10.42;45.77;101387.03;4947855;28;19914;-79
2022/02/06 06:08:45;;;;;;;;;;;;;;;10.31;48.08;101386.38;4956422;28;19914;-80
2022/02/06 06:11:29;;;;;;;;;;;;;;;10.47;45.83;101392.38;4961031;28;19918;-81
2022/02/06 06:14:14;;;;;;;;;;;;;;;10.53;44.96;101396.63;4960863;28;19915;-79
2022/02/06 06:16:58;;;;;;;;;;;;;;;10.32;44.48;101396.16;4959638;28;19918;-80
2022/02/06 06:19:46;;;;;;;;;;;;;;;10.21;44.58;101397.41;4961421;28;19915;-80
2022/02/06 06:22:31;;;;;;;;;;;;;;;9.68;45.03;101397.63;4963412;28;19915;-80
2022/02/06 06:25:15;;;;;;;;;;;;;;;9.60;46.14;101400.97;4961460;28;19918;-80
2022/02/06 06:28:00;;;;;;;;;;;;;;;9.79;46.94;101395.59;4946574;29;19915;-80
2022/02/06 06:30:44;;;;;;;;;;;;;;;9.89;46.80;101403.59;4944537;29;19915;-80
2022/02/06 06:33:29;;;;;;;;;;;;;;;9.84;47.01;101406.38;4943335;29;20396;-80
2022/02/06 06:36:14;;;;;;;;;;;;;;;9.91;46.39;101409.53;4948150;29;20307;-80
2022/02/06 06:38:59;;;;;;;;;;;;;;;9.86;46.41;101415.03;4964771;28;19922;-80
2022/02/06 06:41:43;;;;;;;;;;;;;;;9.80;46.92;101416.22;4962571;28;20314;-80
2022/02/06 06:44:27;;;;;;;;;;;;;;;9.89;46.09;101411.75;4960987;28;19914;-80
2022/02/06 06:47:12;;;;;;;;;;;;;;;9.85;46.29;101413.44;4964613;28;19914;-80
2022/02/06 06:49:57;;;;;;;;;;;;;;;9.88;46.99;101421.78;4963919;28;19915;-78
2022/02/06 06:52:41;;;;;;;;;;;;;;;9.85;46.89;101418.88;4962676;28;19918;-80
2022/02/06 06:55:27;;;;;;;;;;;;;;;9.97;45.36;101413.78;4966869;28;19918;-80
2022/02/06 06:58:20;;;;;;;;;;;;;;;9.96;44.52;101414.88;4967397;28;19915;-80
2022/02/06 07:03:50;;;;;;;;;;;;;;;9.72;44.63;101420.38;4969481;28;19914;-80
2022/02/06 07:06:34;;;;;;;;;;;;;;;9.64;45.54;101426.47;4966474;28;20303;-80
2022/02/06 07:09:19;;;;;;;;;;;;;;;9.39;46.68;101422.16;4964421;29;19914;-80
2022/02/06 07:12:04;;;;;;;;;;;;;;;9.34;47.16;101416.00;4969027;28;19918;-80
2022/02/06 07:14:50;;;;;;;;;;;;;;;9.36;47.01;101413.78;4970278;28;19914;-80
2022/02/06 07:17:34;;;;;;;;;;;;;;;9.45;46.92;101412.03;4968074;28;19918;-79
2022/02/06 07:20:20;;;;;;;;;;;;;;;9.51;46.37;101413.59;4968998;28;19929;-80
2022/02/06 07:23:06;;;;;;;;;;;;;;;9.42;46.57;101408.00;4971605;28;19914;-79
2022/02/06 07:25:53;;;;;;;;;;;;;;;9.62;46.62;101414.28;4969256;28;19915;-79
2022/02/06 07:28:46;;;;;;;;;;;;;;;9.58;47.51;101419.47;4973235;28;19914;-79
2022/02/06 07:31:33;;;;;;;;;;;;;;;9.52;50.02;101408.97;4970754;28;19918;-79
2022/02/06 07:34:17;;;;;;;;;;;;;;;9.50;51.88;101409.25;4968583;28;19914;-80
2022/02/06 07:37:02;;;;;;;;;;;;;;;9.68;53.33;101413.13;4973015;28;19915;-80
2022/02/06 07:39:46;;;;;;;;;;;;;;;9.54;51.80;101409.50;4971202;28;19914;-80
2022/02/06 07:42:31;;;;;;;;;;;;;;;9.88;48.86;101410.13;4969937;28;19914;-79
2022/02/06 07:45:20;;;;;;;;;;;;;;;10.07;47.75;101410.91;4971916;28;20275;-79
2022/02/06 07:48:05;;;;;;;;;;;;;;;9.36;50.67;101414.59;4971760;28;19915;-79
2022/02/06 07:50:50;;;;;;;;;;;;;;;9.18;51.59;101407.22;4967187;28;19914;-80
2022/02/06 07:53:34;;;;;;;;;;;;;;;9.37;52.28;101413.50;4966722;28;19922;-81
2022/02/06 07:56:19;;;;;;;;;;;;;;;9.25;51.59;101415.00;4963910;28;19914;-80
2022/02/06 07:59:04;;;;;;;;;;;;;;;9.32;51.16;101415.47;4963376;28;19915;-80
2022/02/06 08:01:49;;;;;;;;;;;;;;;9.22;51.27;101421.81;4967530;28;19936;-80
2022/02/06 08:04:34;;;;;;;;;;;;;;;9.34;50.64;101421.41;4978125;28;19922;-80
2022/02/06 08:07:19;;;;;;;;;;;;;;;9.39;50.09;101424.88;4976944;28;19914;-80
2022/02/06 08:10:04;;;;;;;;;;;;;;;9.41;49.82;101425.38;4966738;28;19914;-80
2022/02/06 08:12:55;;;;;;;;;;;;;;;9.65;50.07;101424.56;4969665;28;19918;-80
2022/02/06 08:15:40;;;;;;;;;;;;;;;9.90;50.69;101429.66;4969032;28;19915;-80
2022/02/06 08:18:24;;;;;;;;;;;;;;;10.06;53.33;101427.50;4966309;28;19914;-81
2022/02/06 08:21:09;;;;;;;;;;;;;;;10.04;56.68;101421.56;4970683;28;19914;-80
2022/02/06 08:23:54;;;;;;;;;;;;;;;10.17;58.42;101416.22;4969851;28;19914;-80
2022/02/06 08:26:39;;;;;;;;;;;;;;;10.22;59.00;101418.88;4968292;28;19914;-80
2022/02/06 08:29:24;;;;;;;;;;;;;;;10.27;60.14;101418.78;4952524;29;19918;-80
2022/02/06 08:32:08;;;;;;;;;;;;;;;10.32;59.28;101412.47;4955075;28;19919;-78
2022/02/06 08:34:54;;;;;;;;;;;;;;;10.29;59.25;101408.44;4949350;28;19915;-79
2022/02/06 08:37:39;;;;;;;;;;;;;;;10.49;60.52;101409.22;4961567;28;20370;-79
2022/02/06 08:40:23;;;;;;;;;;;;;;;10.47;61.88;101403.25;4957445;28;20331;-78
2022/02/06 08:43:09;;;;;;;;;;;;;;;10.53;62.66;101402.88;4971368;28;19913;-79
2022/02/06 08:45:53;;;;;;;;;;;;;;;10.41;62.63;101418.06;4957582;28;19915;-78
2022/02/06 08:48:39;;;;;;;;;;;;;;;10.41;62.79;101416.16;4957863;28;19918;-78
2022/02/06 08:51:23;;;;;;;;;;;;;;;10.55;63.11;101408.84;4957218;28;19914;-78
2022/02/06 08:54:09;;;;;;;;;;;;;;;10.48;62.78;101415.75;4955882;28;19915;-79
2022/02/06 08:57:01;;;;;;;;;;;;;;;10.72;63.89;101422.66;4954928;28;19914;-78
2022/02/06 08:59:46;;;;;;;;;;;;;;;10.87;63.31;101423.53;4957014;28;19922;-78
2022/02/06 09:02:31;;;;;;;;;;;;;;;10.85;61.85;101426.53;4953677;28;19914;-78
2022/02/06 09:05:15;;;;;;;;;;;;;;;11.03;61.91;101428.38;4961106;28;19918;-79
2022/02/06 09:08:02;;;;;;;;;;;;;;;10.71;61.75;101420.25;4964081;28;20303;-78
2022/02/06 09:10:47;;;;;;;;;;;;;;;10.72;62.92;101421.84;4958287;28;19918;-78
2022/02/06 09:13:32;;;;;;;;;;;;;;;10.73;62.32;101418.84;4975956;28;20316;-79
2022/02/06 09:16:17;;;;;;;;;;;;;;;10.86;62.92;101422.72;4975335;28;19914;-78
2022/02/06 09:19:01;;;;;;;;;;;;;;;11.01;61.97;101427.88;4964868;28;19915;-78
2022/02/06 09:21:46;;;;;;;;;;;;;;;11.08;62.67;101422.81;4962114;28;19918;-78
2022/02/06 09:24:30;;;;;;;;;;;;;;;11.15;62.78;101422.44;4960013;28;19915;-78
2022/02/06 09:27:15;;;;;;;;;;;;;;;11.27;62.54;101414.59;4968250;28;19914;-77
2022/02/06 09:29:59;;;;;;;;;;;;;;;11.21;62.87;101417.72;4962508;28;19914;-78
2022/02/06 09:35:29;;;;;;;;;;;;;;;10.96;62.61;101402.66;4956023;28;19914;-78
2022/02/06 09:38:13;;;;;;;;;;;;;;;11.20;61.29;101413.38;4962432;28;19914;-78
2022/02/06 09:40:57;;;;;;;;;;;;;;;11.13;62.13;101409.13;4941692;29;19914;-80
2022/02/06 09:43:43;;;;;;;;;;;;;;;11.20;62.18;101411.44;4941848;29;19915;-79
2022/02/06 09:46:28;;;;;;;;;;;;;;;11.02;61.56;101402.25;4968255;28;19914;-79
2022/02/06 09:49:13;;;;;;;;;;;;;;;11.16;62.49;101405.00;4975132;28;19914;-79
2022/02/06 09:51:58;;;;;;;;;;;;;;;11.28;62.51;101388.16;4958305;28;19919;-78
2022/02/06 09:54:46;;;;;;;;;;;;;;;11.46;62.08;101393.50;4962665;28;19914;-78
2022/02/06 09:57:40;;;;;;;;;;;;;;;11.35;61.89;101404.91;4957086;28;19922;-78
2022/02/06 10:00:27;;;;;;;;;;;;;;;11.47;61.77;101405.19;4950427;28;19914;-78
2022/02/06 10:03:12;;;;;;;;;;;;;;;11.31;62.03;101403.91;4951500;28;20287;-77
2022/02/06 10:05:58;;;;;;;;;;;;;;;11.47;61.68;101406.00;4948080;28;19914;-77
2022/02/06 10:08:45;;;;;;;;;;;;;;;11.48;61.89;101404.88;4946211;28;19914;-76
2022/02/06 10:11:30;;;;;;;;;;;;;;;11.53;61.89;101395.78;4954861;28;19915;-76
2022/02/06 10:14:15;;;;;;;;;;;;;;;11.42;61.65;101392.50;4958281;28;19915;-77
2022/02/06 10:16:59;;;;;;;;;;;;;;;11.38;61.06;101390.66;4956518;28;20303;-77
2022/02/06 10:19:51;;;;;;;;;;;;;;;11.46;60.65;101387.25;4944821;28;20403;-77
2022/02/06 10:22:40;;;;;;;;;;;;;;;11.47;60.44;101383.41;4955441;28;20390;-78
2022/02/06 10:25:25;;;;;;;;;;;;;;;11.46;59.98;101376.34;4946533;28;19919;-77
2022/02/06 10:28:32;;;;;;;;;;;;;;;11.55;60.99;101378.03;4952627;28;19915;-77
2022/02/06 10:31:17;;;;;;;;;;;;;;;11.71;61.15;101366.81;4951344;29;19914;-77
2022/02/06 10:34:02;;;;;;;;;;;;;;;11.70;60.62;101371.44;4949974;28;19922;-77
2022/02/06 10:36:46;;;;;;;;;;;;;;;11.77;61.17;101360.97;4944664;28;19918;-77
2022/02/06 10:39:32;;;;;;;;;;;;;;;11.79;60.85;101364.19;4948019;28;19923;-77
2022/02/06 10:42:21;;;;;;;;;;;;;;;11.74;60.00;101367.03;4944608;28;19919;-77
2022/02/06 10:45:21;;;;;;;;;;;;;;;11.98;61.51;101370.31;4950590;29;19914;-77
2022/02/06 10:48:18;;;;;;;;;;;;;;;11.88;59.79;101365.09;4946304;29;19918;-77
2022/02/06 10:51:03;;;;;;;;;;;;;;;11.86;60.52;101358.31;4956898;28;20292;-78
2022/02/06 10:54:00;;;;;;;;;;;;;;;12.04;60.83;101360.06;4949184;28;19919;-77
2022/02/06 10:56:57;;;;;;;;;;;;;;;12.00;60.19;101354.44;4947581;28;19914;-77
2022/02/06 10:59:53;;;;;;;;;;;;;;;12.06;60.47;101348.84;4956762;28;19922;-77
2022/02/06 11:02:59;;;;;;;;;;;;;;;12.08;60.38;101343.91;4950321;28;19915;-77
2022/02/06 11:05:50;;;;;;;;;;;;;;;12.28;60.48;101349.69;4953852;28;19922;-77
2022/02/06 11:08:36;;;;;;;;;;;;;;;12.30;60.48;101336.50;4955683;28;19922;-77
2022/02/06 11:11:31;;;;;;;;;;;;;;;12.42;60.41;101336.75;4952795;28;19922;-77
2022/02/06 11:14:21;;;;;;;;;;;;;;;12.33;59.72;101329.66;4953835;28;20355;-77
2022/02/06 11:17:14;;;;;;;;;;;;;;;12.38;60.96;101326.78;4953126;28;19915;-78
2022/02/06 11:20:03;;;;;;;;;;;;;;;12.48;60.37;101317.53;4954085;28;20602;-77
2022/02/06 11:22:52;;;;;;;;;;;;;;;12.25;59.25;101314.03;4952629;28;19922;-78
2022/02/06 11:25:36;;;;;;;;;;;;;;;12.44;60.12;101309.19;4954798;28;20001;-78
2022/02/06 11:28:21;;;;;;;;;;;;;;;12.35;59.75;101305.56;4954580;29;19922;-78
2022/02/06 11:31:05;;;;;;;;;;;;;;;12.34;59.44;101302.03;4956878;28;19914;-78
2022/02/06 11:33:50;;;;;;;;;;;;;;;12.28;58.58;101300.59;4951101;28;19918;-79
2022/02/06 11:46:10;;;;;;;;;;;;;;;12.30;57.63;101284.69;4954055;28;19914;-80
2022/02/06 11:49:15;;;;;;;;;;;;;;;12.53;59.25;101284.66;4948297;28;19915;-78
2022/02/06 11:52:00;;;;;;;;;;;;;;;12.52;59.65;101277.59;4945465;29;19915;-80
2022/02/06 11:54:45;;;;;;;;;;;;;;;12.30;58.77;101271.06;4943803;29;19914;-80
2022/02/06 11:57:29;;;;;;;;;;;;;;;12.54;58.57;101270.72;4942255;29;19919;-81
2022/02/06 12:00:14;;;;;;;;;;;;;;;12.61;59.49;101253.88;4955951;28;19914;-79
2022/02/06 12:03:10;;;;;;;;;;;;;;;12.51;58.54;101244.06;4956922;28;19919;-80
2022/02/06 12:05:58;;;;;;;;;;;;;;;12.47;57.72;101232.16;4958345;28;19930;-80
2022/02/06 12:08:44;;;;;;;;;;;;;;;12.66;58.99;101231.91;4962790;28;19915;-80
2022/02/06 12:11:30;;;;;;;;;;;;;;;12.65;59.10;101233.81;4964685;28;19914;-80
2022/02/06 12:14:20;;;;;;;;;;;;;;;12.61;58.53;101234.78;4953502;28;19922;-80
2022/02/06 12:17:17;;;;;;;;;;;;;;;12.87;59.38;101216.56;4963020;28;19918;-80
2022/02/06 12:20:06;;;;;;;;;;;;;;;12.89;58.73;101211.59;4957243;28;19922;-80
2022/02/06 12:22:51;;;;;;;;;;;;;;;12.83;57.77;101196.47;4962771;28;19915;-80
2022/02/06 12:25:37;;;;;;;;;;;;;;;12.72;57.63;101195.97;4955003;28;20604;-80
2022/02/06 12:28:22;;;;;;;;;;;;;;;12.63;57.01;101195.16;4948906;28;19915;-79
2022/02/06 12:31:13;;;;;;;;;;;;;;;12.62;55.94;101182.63;4954452;28;20184;-79
2022/02/06 12:34:10;;;;;;;;;;;;;;;12.50;55.17;101170.69;4952028;28;19923;-77
2022/02/06 12:37:10;;;;;;;;;;;;;;;12.22;56.03;101170.16;4955877;28;19915;-79
2022/02/06 12:40:15;;;;;;;;;;;;;;;12.53;56.30;101151.00;4962141;28;20306;-80
2022/02/06 12:43:02;;;;;;;;;;;;;;;12.67;56.58;101149.75;4940306;29;19915;-81
2022/02/06 12:45:50;;;;;;;;;;;;;;;12.49;55.66;101142.66;4945199;29;20314;-80
2022/02/06 12:48:34;;;;;;;;;;;;;;;12.40;55.06;101144.53;4957230;28;19915;-79
2022/02/06 12:51:30;;;;;;;;;;;;;;;12.71;54.72;101133.53;4953855;28;20398;-80
2022/02/06 12:54:15;;;;;;;;;;;;;;;12.63;55.88;101118.75;4956913;28;19919;-80
2022/02/06 12:56:59;;;;;;;;;;;;;;;12.92;54.92;101117.34;4949697;28;19914;-79
2022/02/06 12:59:44;;;;;;;;;;;;;;;12.76;54.43;101106.88;4948747;28;19915;-79
2022/02/06 13:02:34;;;;;;;;;;;;;;;12.72;55.27;101108.66;4958597;28;19914;-80
2022/02/06 13:05:20;;;;;;;;;;;;;;;12.65;55.10;101093.88;4950988;28;19914;-79
2022/02/06 13:08:06;;;;;;;;;;;;;;;12.51;55.20;101091.28;4948582;28;20375;-79
2022/02/06 13:11:04;;;;;;;;;;;;;;;12.74;54.10;101086.50;4952493;28;19914;-79
2022/02/06 13:13:54;;;;;;;;;;;;;;;12.64;54.67;101074.00;4952905;28;19918;-79
2022/02/06 13:17:02;;;;;;;;;;;;;;;12.76;54.36;101076.88;4949032;28;19914;-79
2022/02/06 13:34:24;;;;;;;;;;;;;;;13.35;55.24;101044.41;4958353;28;19918;-80
2022/02/06 13:40:21;;;;;;;;;;;;;;;13.44;54.82;101036.97;4945886;29;19915;-78
2022/02/06 13:43:14;;;;;;;;;;;;;;;13.54;54.90;101038.56;4959119;28;19914;-78
2022/02/06 13:46:01;;;;;;;;;;;;;;;13.57;54.16;101041.41;4957278;28;19922;-80
2022/02/06 13:48:46;;;;;;;;;;;;;;;13.56;53.82;101039.03;4960036;28;20388;-78
2022/02/06 13:51:36;;;;;;;;;;;;;;;13.66;55.05;101061.31;4953241;28;20609;-79
2022/02/06 13:54:27;;;;;;;;;;;;;;;13.77;55.30;101039.88;4958514;28;19918;-78
2022/02/06 13:57:11;;;;;;;;;;;;;;;13.84;54.58;101033.91;4959366;28;19915;-78
2022/02/06 13:59:56;;;;;;;;;;;;;;;13.93;54.73;101031.94;4953666;28;19914;-78
2022/02/06 14:02:53;;;;;;;;;;;;;;;13.97;55.03;101028.22;4962375;28;19915;-78
2022/02/06 14:05:47;;;;;;;;;;;;;;;14.01;54.42;101020.16;4959890;28;19914;-79
2022/02/06 14:08:34;;;;;;;;;;;;;;;14.06;53.95;101014.50;4959290;28;19914;-78
2022/02/06 14:11:27;;;;;;;;;;;;;;;14.09;54.08;101013.84;4954773;28;19914;-79
2022/02/06 14:14:23;;;;;;;;;;;;;;;14.16;53.67;101014.13;4950770;28;20290;-79
2022/02/06 14:17:15;;;;;;;;;;;;;;;14.25;54.98;101006.66;4954380;28;19914;-79
2022/02/06 14:20:07;;;;;;;;;;;;;;;14.30;54.72;101003.72;4952269;28;19915;-80
2022/02/06 14:22:57;;;;;;;;;;;;;;;14.16;53.26;100991.44;4959717;28;19914;-82
2022/02/06 14:25:45;;;;;;;;;;;;;;;14.12;53.59;100991.28;4965414;28;19914;-82
2022/02/06 14:28:36;;;;;;;;;;;;;;;14.26;53.75;100986.38;4966561;28;19922;-80
2022/02/06 14:31:33;;;;;;;;;;;;;;;14.27;53.73;100984.44;4959301;28;19915;-79
2022/02/06 14:34:18;;;;;;;;;;;;;;;14.29;53.73;100974.75;4960844;28;19922;-78
2022/02/06 14:37:08;;;;;;;;;;;;;;;14.32;53.82;100978.78;4953055;29;19914;-78
2022/02/06 14:40:11;;;;;;;;;;;;;;;14.24;53.43;100977.69;4954603;29;19914;-77
2022/02/06 14:43:05;;;;;;;;;;;;;;;14.30;53.86;100970.09;4956521;28;20403;-77
2022/02/06 14:45:49;;;;;;;;;;;;;;;14.32;54.08;100965.91;4952828;29;19914;-78
2022/02/06 14:48:34;;;;;;;;;;;;;;;14.32;54.32;100959.63;4954067;28;20379;-77
2022/02/06 14:51:19;;;;;;;;;;;;;;;14.29;53.68;100960.28;4948929;28;19915;-77
2022/02/06 14:54:05;;;;;;;;;;;;;;;14.22;53.33;100962.75;4955462;28;19918;-78
2022/02/06 14:56:49;;;;;;;;;;;;;;;14.17;53.32;100960.22;4952164;28;19914;-78
2022/02/06 14:59:34;;;;;;;;;;;;;;;14.16;53.87;100951.22;4958337;28;19914;-79
2022/02/06 15:02:19;;;;;;;;;;;;;;;14.16;53.35;100944.94;4958195;29;19914;-79
2022/02/06 15:05:03;;;;;;;;;;;;;;;13.97;54.03;100937.97;4959474;28;20319;-78
2022/02/06 15:07:48;;;;;;;;;;;;;;;14.00;53.52;100945.53;4954733;28;19914;-78
2022/02/06 15:10:35;;;;;;;;;;;;;;;13.82;53.56;100933.09;4957072;29;19915;-77
2022/02/06 15:13:19;;;;;;;;;;;;;;;13.66;53.15;100932.09;4961251;28;19948;-78
2022/02/06 15:16:09;;;;;;;;;;;;;;;13.77;53.75;100935.22;4958741;29;19922;-78
2022/02/06 15:18:58;;;;;;;;;;;;;;;13.64;53.16;100929.69;4957128;28;19914;-78
2022/02/06 15:21:43;;;;;;;;;;;;;;;13.63;53.49;100936.28;4962336;29;19922;-78
2022/02/06 15:24:28;;;;;;;;;;;;;;;13.51;53.64;100932.66;4959346;29;19914;-78
2022/02/06 15:27:12;;;;;;;;;;;;;;;13.68;53.62;100929.81;4957785;29;19914;-78
2022/02/06 15:29:56;;;;;;;;;;;;;;;13.75;54.32;100924.63;4962976;28;19914;-78
2022/02/06 15:32:41;;;;;;;;;;;;;;;13.73;53.48;100928.81;4959206;28;19914;-78
2022/02/06 15:35:26;;;;;;;;;;;;;;;13.73;54.06;100928.81;4960056;28;19915;-78
2022/02/06 15:38:10;;;;;;;;;;;;;;;13.60;53.41;100920.56;4959323;28;19914;-78
2022/02/06 15:40:58;;;;;;;;;;;;;;;13.63;53.79;100914.41;4962994;28;19914;-78
2022/02/06 15:43:43;;;;;;;;;;;;;;;13.53;53.79;100903.06;4960647;28;20387;-78
2022/02/06 15:46:31;;;;;;;;;;;;;;;13.59;53.83;100894.34;4959138;28;19918;-78
2022/02/06 15:49:15;;;;;;;;;;;;;;;13.37;53.49;100894.63;4943851;29;19914;-77
2022/02/06 15:52:00;;;;;;;;;;;;;;;13.31;53.79;100887.75;4941560;29;19914;-77
2022/02/06 15:54:45;;;;;;;;;;;;;;;13.38;53.58;100884.50;4939025;29;20335;-78
2022/02/06 15:57:30;;;;;;;;;;;;;;;13.50;54.29;100893.59;4946361;29;19914;-78
2022/02/06 16:00:16;;;;;;;;;;;;;;;13.66;54.61;100886.41;4960814;28;19914;-78
2022/02/06 16:03:00;;;;;;;;;;;;;;;13.65;54.41;100887.56;4959637;28;19914;-78
2022/02/06 16:05:45;;;;;;;;;;;;;;;13.61;54.65;100894.03;4962507;28;20335;-78
2022/02/06 16:08:29;;;;;;;;;;;;;;;13.59;54.62;100885.34;4961188;28;19914;-77
2022/02/06 16:11:14;;;;;;;;;;;;;;;13.83;55.03;100887.44;4959412;28;19914;-78
2022/02/06 16:13:59;;;;;;;;;;;;;;;13.76;54.75;100887.19;4962943;28;19994;-78
2022/02/06 16:16:43;;;;;;;;;;;;;;;13.78;54.66;100885.69;4959171;28;20387;-78
2022/02/06 16:19:28;;;;;;;;;;;;;;;13.70;54.46;100879.19;4958770;28;19918;-78
2022/02/06 16:22:12;;;;;;;;;;;;;;;13.73;54.39;100872.22;4963350;28;19915;-78
2022/02/06 16:24:57;;;;;;;;;;;;;;;13.77;54.05;100869.63;4961002;28;19914;-78
2022/02/06 16:27:41;;;;;;;;;;;;;;;13.79;54.59;100868.19;4959666;28;19914;-78
2022/02/06 16:30:26;;;;;;;;;;;;;;;13.70;54.20;100857.31;4962659;28;19915;-78
2022/02/06 16:33:11;;;;;;;;;;;;;;;13.79;54.79;100845.50;4961267;28;19918;-78
2022/02/06 16:35:55;;;;;;;;;;;;;;;13.80;54.33;100841.66;4959947;28;19914;-78
2022/02/06 16:38:40;;;;;;;;;;;;;;;13.82;54.17;100856.56;4958069;28;19918;-78
2022/02/06 16:41:26;;;;;;;;;;;;;;;13.66;54.27;100841.91;4961409;28;19914;-78
2022/02/06 16:44:10;;;;;;;;;;;;;;;13.67;54.57;100830.63;4940420;29;20376;-78
2022/02/06 16:46:55;;;;;;;;;;;;;;;13.66;54.95;100831.75;4938617;29;19918;-78
2022/02/06 16:49:39;;;;;;;;;;;;;;;13.65;54.65;100840.31;4942913;29;20283;-78
2022/02/06 16:52:24;;;;;;;;;;;;;;;13.82;55.33;100851.09;4943870;29;20411;-78